Time;durP1;ratioP1;P1;durP2;ratioP2;P2;SDS_P1;SDS_P2;PMS_P1;PMS_P2;Temp;Humidity;BMP_temperature;BMP_pressure;BME280_temperature;BME280_humidity;BME280_pressure;Samples;Min_cycle;Max_cycle;Signal;HPM_P1;HPM_P2
2023/04/13 00:00:55;;;;;;;2.25;0.88;;;;;;;7.45;100.00;99410.84;6091878;23;20010;-76
2023/04/13 00:03:20;;;;;;;4.57;1.02;;;;;;;7.39;100.00;99416.59;6094979;23;20017;-75
2023/04/13 00:05:47;;;;;;;1.92;1.10;;;;;;;7.51;100.00;99400.59;6093814;23;20021;-75
2023/04/13 00:08:12;;;;;;;3.92;1.20;;;;;;;7.46;100.00;99393.97;6094609;23;20002;-75
2023/04/13 00:10:41;;;;;;;3.58;0.90;;;;;;;7.54;100.00;99388.94;6094999;23;20242;-74
2023/04/13 00:13:08;;;;;;;3.17;0.93;;;;;;;7.54;100.00;99386.28;6098518;23;20093;-75
2023/04/13 00:15:36;;;;;;;3.15;1.52;;;;;;;7.61;100.00;99390.16;6095628;23;20005;-75
2023/04/13 00:18:03;;;;;;;8.85;1.00;;;;;;;7.60;100.00;99385.00;6099469;23;20037;-75
2023/04/13 00:20:31;;;;;;;1.98;1.02;;;;;;;7.67;100.00;99389.69;6098799;23;20006;-74
2023/04/13 00:22:57;;;;;;;2.17;0.93;;;;;;;7.57;100.00;99386.03;6097132;23;20074;-75
2023/04/13 00:25:22;;;;;;;1.02;0.90;;;;;;;7.65;100.00;99374.88;6094385;23;20014;-73
2023/04/13 00:27:51;;;;;;;3.63;0.90;;;;;;;7.58;100.00;99374.50;6093528;23;20085;-74
2023/04/13 00:30:18;;;;;;;3.70;0.90;;;;;;;7.45;100.00;99386.97;6096852;23;20018;-76
2023/04/13 00:32:44;;;;;;;4.57;1.08;;;;;;;7.65;100.00;99375.72;6092236;23;20033;-74
2023/04/13 00:35:18;;;;;;;3.67;0.98;;;;;;;7.59;100.00;99362.91;6091952;23;20382;-75
2023/04/13 00:37:47;;;;;;;3.05;1.00;;;;;;;7.59;100.00;99378.00;6092367;23;20017;-74
2023/04/13 00:40:15;;;;;;;3.65;0.80;;;;;;;7.54;100.00;99362.41;6091007;23;20088;-74
2023/04/13 00:42:48;;;;;;;2.63;1.33;;;;;;;7.42;100.00;99363.31;6088800;23;20351;-74
2023/04/13 00:45:16;;;;;;;4.65;1.13;;;;;;;7.53;100.00;99358.09;6090522;23;20047;-75
2023/04/13 00:47:47;;;;;;;3.42;1.00;;;;;;;7.39;100.00;99361.75;6090307;23;20025;-74
2023/04/13 00:50:17;;;;;;;1.58;0.80;;;;;;;7.46;100.00;99355.03;6089739;23;20009;-74
2023/04/13 00:52:44;;;;;;;2.65;1.23;;;;;;;7.41;100.00;99361.63;6097626;23;20758;-75
2023/04/13 00:55:11;;;;;;;1.85;1.00;;;;;;;7.51;100.00;99355.53;6093768;23;20022;-74
2023/04/13 00:57:39;;;;;;;3.33;1.20;;;;;;;7.43;100.00;99347.31;6092148;23;20524;-74
2023/04/13 01:00:08;;;;;;;3.53;1.10;;;;;;;7.44;100.00;99350.81;6093656;23;20010;-75
2023/04/13 01:02:40;;;;;;;5.60;1.40;;;;;;;7.45;100.00;99352.50;6095659;23;20438;-74
2023/04/13 01:05:06;;;;;;;7.90;1.25;;;;;;;7.45;100.00;99342.72;6095467;23;20018;-74
2023/04/13 01:07:40;;;;;;;7.13;1.20;;;;;;;7.39;100.00;99345.84;6094683;23;20101;-75
2023/04/13 01:10:15;;;;;;;3.83;1.23;;;;;;;7.30;100.00;99340.38;6096259;23;20089;-75
2023/04/13 01:12:55;;;;;;;1.98;1.00;;;;;;;7.34;100.00;99342.69;6093635;23;20092;-74
2023/04/13 01:15:22;;;;;;;15.98;2.85;;;;;;;7.51;100.00;99339.59;6096300;23;20401;-74
2023/04/13 01:17:57;;;;;;;1.67;0.80;;;;;;;7.37;100.00;99334.47;6096437;23;20086;-73
2023/04/13 01:20:27;;;;;;;5.20;1.20;;;;;;;7.37;100.00;99334.47;6094242;23;20022;-75
2023/04/13 01:22:55;;;;;;;9.07;2.60;;;;;;;7.43;100.00;99325.22;6097455;23;20010;-74
2023/04/13 01:25:36;;;;;;;6.35;1.25;;;;;;;7.44;100.00;99322.47;6095506;23;20013;-74
2023/04/13 01:28:14;;;;;;;3.50;1.65;;;;;;;7.59;100.00;99335.56;6094234;23;20092;-76
2023/04/13 01:30:41;;;;;;;4.22;1.30;;;;;;;7.47;100.00;99330.19;6093098;23;20362;-73
2023/04/13 01:33:09;;;;;;;5.03;1.40;;;;;;;7.47;100.00;99330.19;6096523;23;20036;-75
2023/04/13 01:35:38;;;;;;;6.30;1.40;;;;;;;7.56;100.00;99341.91;6095315;23;20018;-74
2023/04/13 01:38:11;;;;;;;4.47;1.70;;;;;;;7.52;100.00;99332.50;6099777;23;20024;-75
2023/04/13 01:40:40;;;;;;;4.15;1.08;;;;;;;7.30;100.00;99332.41;6094456;23;20018;-75
2023/04/13 01:43:10;;;;;;;3.97;1.48;;;;;;;7.44;100.00;99330.44;6092968;23;20080;-74
2023/04/13 01:46:14;;;;;;;5.53;1.10;;;;;;;7.50;100.00;99329.97;6096804;23;20059;-75
2023/04/13 01:49:01;;;;;;;4.80;1.65;;;;;;;7.48;100.00;99331.03;6090757;23;20034;-75
2023/04/13 01:52:06;;;;;;;4.03;1.13;;;;;;;7.48;100.00;99325.72;6035750;23;20128;-75
2023/04/13 01:54:42;;;;;;;5.22;1.33;;;;;;;7.46;100.00;99317.88;6011325;23;20023;-72
2023/04/13 01:57:12;;;;;;;1.40;1.17;;;;;;;7.57;100.00;99334.81;6007462;23;20204;-75
2023/04/13 01:59:38;;;;;;;6.40;2.30;;;;;;;7.59;100.00;99325.78;6010902;23;20015;-75
2023/04/13 02:02:08;;;;;;;3.15;1.05;;;;;;;7.63;100.00;99319.28;6035658;23;20029;-74
2023/04/13 02:04:34;;;;;;;6.60;1.33;;;;;;;7.67;100.00;99320.72;6012070;23;20735;-76
2023/04/13 02:07:00;;;;;;;5.93;2.13;;;;;;;7.63;100.00;99323.72;6035560;23;20019;-74
2023/04/13 02:09:34;;;;;;;5.60;2.50;;;;;;;7.67;100.00;99333.16;6009663;23;20102;-75
2023/04/13 02:12:00;;;;;;;9.32;1.58;;;;;;;7.65;100.00;99343.03;6009288;23;20026;-75
2023/04/13 02:14:26;;;;;;;2.97;1.10;;;;;;;7.60;100.00;99338.09;6033615;23;20868;-74
2023/04/13 02:16:52;;;;;;;2.45;1.55;;;;;;;7.68;100.00;99340.13;6014012;23;20490;-74
2023/04/13 02:19:18;;;;;;;3.85;0.95;;;;;;;7.56;100.00;99341.06;6032315;23;20425;-74
2023/04/13 02:21:45;;;;;;;6.43;1.48;;;;;;;7.69;100.00;99339.19;6011211;23;20011;-74
2023/04/13 02:24:10;;;;;;;4.70;1.23;;;;;;;7.79;100.00;99341.03;6095335;23;20123;-75
2023/04/13 02:26:38;;;;;;;4.30;2.28;;;;;;;7.65;100.00;99351.84;6092716;23;20014;-75
2023/04/13 02:29:04;;;;;;;6.10;1.90;;;;;;;7.63;100.00;99351.13;6095241;23;20014;-73
2023/04/13 02:31:32;;;;;;;5.32;1.55;;;;;;;7.75;100.00;99346.69;6094936;23;20740;-74
2023/04/13 02:33:59;;;;;;;7.95;2.72;;;;;;;7.53;100.00;99343.00;6095868;23;20292;-74
2023/04/13 02:36:26;;;;;;;6.82;1.70;;;;;;;7.57;100.00;99361.31;6094796;23;20080;-74
2023/04/13 02:38:56;;;;;;;3.50;1.40;;;;;;;7.68;100.00;99343.66;6091875;23;20101;-73
2023/04/13 02:41:30;;;;;;;10.90;1.90;;;;;;;7.71;100.00;99362.00;6094981;23;20010;-74
2023/04/13 02:43:56;;;;;;;6.68;1.50;;;;;;;7.66;100.00;99363.28;6090167;23;20017;-75
2023/04/13 02:46:24;;;;;;;2.47;1.15;;;;;;;7.67;100.00;99372.94;6090767;23;20014;-73
2023/04/13 02:49:13;;;;;;;3.85;1.35;;;;;;;7.78;100.00;99375.63;6096409;23;20016;-74
2023/04/13 02:51:52;;;;;;;5.28;1.40;;;;;;;7.67;100.00;99375.59;6093733;23;20648;-73
2023/04/13 02:54:26;;;;;;;8.48;1.80;;;;;;;7.72;100.00;99382.25;6093266;23;20014;-74
2023/04/13 02:56:52;;;;;;;5.70;1.60;;;;;;;7.68;100.00;99380.81;6092987;23;20021;-72
2023/04/13 02:59:17;;;;;;;2.53;1.38;;;;;;;7.53;100.00;99395.22;6092746;23;20013;-73
2023/04/13 03:01:44;;;;;;;6.10;1.50;;;;;;;7.58;100.00;99394.84;6094664;23;20060;-73
2023/04/13 03:04:11;;;;;;;3.55;1.35;;;;;;;7.63;100.00;99393.56;6094335;23;20029;-72
2023/04/13 03:06:36;;;;;;;7.20;1.75;;;;;;;7.67;100.00;99407.44;6092756;23;20021;-75
2023/04/13 03:09:03;;;;;;;6.53;1.35;;;;;;;7.52;100.00;99407.59;6090553;23;20523;-74
2023/04/13 03:11:43;;;;;;;3.60;1.70;;;;;;;7.58;100.00;99418.72;6091869;23;20010;-74
2023/04/13 03:14:22;;;;;;;3.15;1.52;;;;;;;7.56;100.00;99418.00;6092504;23;20024;-73
2023/04/13 03:16:57;;;;;;;5.75;1.83;;;;;;;7.51;100.00;99429.78;6093529;23;20052;-75
2023/04/13 03:19:27;;;;;;;12.48;2.15;;;;;;;7.46;100.00;99425.78;6067644;23;20113;-76
2023/04/13 03:21:53;;;;;;;4.40;2.45;;;;;;;7.43;100.00;99439.25;6095483;23;20076;-75
2023/04/13 03:24:26;;;;;;;2.13;1.25;;;;;;;7.46;100.00;99437.22;6090549;23;20053;-75
2023/04/13 03:26:56;;;;;;;4.60;1.33;;;;;;;7.41;100.00;99441.19;6091617;23;20389;-74
2023/04/13 03:29:28;;;;;;;5.47;1.52;;;;;;;7.40;100.00;99450.09;6094564;23;20393;-75
2023/04/13 03:31:53;;;;;;;2.10;1.35;;;;;;;7.39;100.00;99451.06;6089984;23;20014;-74
2023/04/13 03:34:19;;;;;;;4.05;1.40;;;;;;;7.41;100.00;99455.28;6093018;23;20267;-76
2023/04/13 03:36:46;;;;;;;4.03;1.33;;;;;;;7.32;100.00;99463.06;6090606;23;20021;-75
2023/04/13 03:39:14;;;;;;;4.45;1.60;;;;;;;7.33;100.00;99464.75;6089637;23;20100;-75
2023/04/13 03:41:39;;;;;;;5.05;1.52;;;;;;;7.26;100.00;99480.25;6093680;23;20097;-74
2023/04/13 03:44:08;;;;;;;4.88;1.70;;;;;;;7.27;100.00;99487.25;6091550;23;20010;-75
2023/04/13 03:46:45;;;;;;;3.75;1.90;;;;;;;7.35;100.00;99479.59;6090555;23;20025;-75
2023/04/13 03:49:21;;;;;;;4.50;1.35;;;;;;;7.14;100.00;99487.28;6093366;23;20076;-74
2023/04/13 03:51:47;;;;;;;4.63;1.67;;;;;;;7.12;100.00;99485.69;6097589;23;20045;-74
2023/04/13 03:54:15;;;;;;;7.10;1.73;;;;;;;7.23;100.00;99491.09;6120602;23;20009;-75
2023/04/13 03:56:41;;;;;;;6.28;1.95;;;;;;;7.16;100.00;99488.03;6094494;23;20013;-75
2023/04/13 03:59:08;;;;;;;4.43;1.95;;;;;;;7.01;100.00;99500.56;6094319;23;20028;-75
2023/04/13 04:01:36;;;;;;;6.40;2.50;;;;;;;7.16;100.00;99493.31;6093203;23;20211;-74
2023/04/13 04:04:06;;;;;;;5.80;2.22;;;;;;;7.05;100.00;99495.88;6092496;23;20025;-75
2023/04/13 04:06:32;;;;;;;11.80;4.05;;;;;;;6.92;100.00;99503.00;6094570;23;20181;-75
2023/04/13 04:09:12;;;;;;;7.45;2.10;;;;;;;6.92;100.00;99495.88;6092516;23;20404;-75
2023/04/13 04:11:45;;;;;;;7.18;2.17;;;;;;;6.99;100.00;99505.13;6097117;23;20057;-75
2023/04/13 04:14:12;;;;;;;5.03;2.30;;;;;;;6.93;100.00;99510.00;6092207;23;20010;-74
2023/04/13 04:16:47;;;;;;;8.07;3.78;;;;;;;6.98;100.00;99518.50;6095348;23;20577;-74
2023/04/13 04:19:14;;;;;;;4.28;2.70;;;;;;;6.92;100.00;99519.75;6094265;23;20032;-74
2023/04/13 04:21:45;;;;;;;5.70;2.90;;;;;;;6.92;100.00;99521.53;6093629;23;20422;-74
2023/04/13 04:24:21;;;;;;;6.85;2.83;;;;;;;6.98;100.00;99527.28;6094723;23;20020;-75
2023/04/13 04:26:49;;;;;;;9.90;3.40;;;;;;;6.81;100.00;99530.25;6092006;23;20022;-75
2023/04/13 04:29:20;;;;;;;13.88;3.97;;;;;;;6.86;100.00;99530.78;6092269;23;20024;-75
2023/04/13 04:31:52;;;;;;;8.20;3.17;;;;;;;6.90;100.00;99536.72;6093783;23;20018;-75
2023/04/13 04:34:19;;;;;;;14.00;3.20;;;;;;;6.82;100.00;99542.53;6090968;23;20189;-74
2023/04/13 04:36:49;;;;;;;8.15;3.17;;;;;;;6.84;100.00;99548.59;6118870;23;20774;-74
2023/04/13 04:39:21;;;;;;;7.97;3.15;;;;;;;6.86;100.00;99551.97;6096658;23;20968;-74
2023/04/13 04:41:54;;;;;;;8.90;3.72;;;;;;;6.88;100.00;99555.38;6074814;23;20504;-75
2023/04/13 04:44:23;;;;;;;6.25;3.10;;;;;;;6.83;100.00;99559.28;6097171;23;20026;-74
2023/04/13 04:46:53;;;;;;;10.43;3.13;;;;;;;7.07;100.00;99564.69;6094598;23;20057;-74
2023/04/13 04:49:21;;;;;;;8.18;3.67;;;;;;;6.90;100.00;99563.22;6093831;23;20014;-73
2023/04/13 04:51:48;;;;;;;9.98;3.47;;;;;;;7.02;100.00;99572.94;6094980;23;20018;-73
2023/04/13 04:54:18;;;;;;;13.88;5.40;;;;;;;7.06;100.00;99573.59;6094569;23;20500;-74
2023/04/13 04:56:49;;;;;;;12.27;3.97;;;;;;;7.08;100.00;99579.63;6096322;23;20018;-74
2023/04/13 04:59:18;;;;;;;12.20;4.82;;;;;;;7.09;100.00;99576.91;6094312;23;20418;-75
2023/04/13 05:02:00;;;;;;;10.77;3.90;;;;;;;7.04;100.00;99588.78;6099585;23;20864;-74
2023/04/13 05:04:25;;;;;;;9.25;4.28;;;;;;;7.20;100.00;99592.06;6090405;23;20013;-74
2023/04/13 05:06:52;;;;;;;11.55;3.80;;;;;;;7.24;100.00;99594.38;6093599;23;20014;-74
2023/04/13 05:09:21;;;;;;;12.68;4.10;;;;;;;7.21;100.00;99593.75;6098132;23;20018;-74
2023/04/13 05:11:50;;;;;;;12.05;4.43;;;;;;;7.39;100.00;99596.94;6094736;23;20010;-74
2023/04/13 05:14:18;;;;;;;16.20;6.03;;;;;;;7.78;100.00;99591.44;6119770;23;20013;-74
2023/04/13 05:16:44;;;;;;;16.35;4.60;;;;;;;7.75;100.00;99596.94;6070947;23;20021;-74
2023/04/13 05:19:26;;;;;;;9.95;4.70;;;;;;;7.77;100.00;99605.63;6092185;23;20006;-74
2023/04/13 05:22:00;;;;;;;12.30;4.78;;;;;;;7.98;100.00;99602.41;6095999;23;20058;-75
2023/04/13 05:24:28;;;;;;;14.27;5.63;;;;;;;7.90;100.00;99613.59;6092825;23;20038;-75
2023/04/13 05:26:57;;;;;;;11.40;5.18;;;;;;;8.03;100.00;99610.88;6094950;23;20222;-74
2023/04/13 05:29:24;;;;;;;13.80;5.57;;;;;;;7.85;100.00;99618.38;6091401;23;20049;-74
2023/04/13 05:31:50;;;;;;;19.50;5.65;;;;;;;7.89;100.00;99611.03;6093705;23;20125;-73
2023/04/13 05:34:18;;;;;;;9.10;4.75;;;;;;;7.95;100.00;99616.75;6092021;23;20036;-75
2023/04/13 05:37:02;;;;;;;18.13;6.10;;;;;;;8.07;100.00;99619.47;6092402;23;20017;-74
2023/04/13 05:39:29;;;;;;;12.32;5.82;;;;;;;7.95;100.00;99630.03;6090186;23;20056;-75
2023/04/13 05:41:55;;;;;;;10.48;5.50;;;;;;;8.22;100.00;99627.16;6089037;23;20013;-74
2023/04/13 05:44:21;;;;;;;13.40;6.22;;;;;;;8.08;100.00;99635.28;6095089;23;20112;-75
2023/04/13 05:46:49;;;;;;;13.00;6.18;;;;;;;8.10;100.00;99635.19;6099331;23;20355;-73
2023/04/13 05:49:15;;;;;;;11.43;5.88;;;;;;;8.15;100.00;99636.53;6096749;23;20014;-73
2023/04/13 05:51:41;;;;;;;9.45;5.00;;;;;;;8.30;100.00;99637.22;6094644;23;20721;-74
2023/04/13 05:54:08;;;;;;;12.32;5.60;;;;;;;8.31;100.00;99644.25;6091869;23;20449;-74
2023/04/13 05:56:40;;;;;;;11.65;6.15;;;;;;;8.54;100.00;99637.28;6116474;23;20020;-74
2023/04/13 05:59:06;;;;;;;13.03;6.23;;;;;;;8.45;100.00;99641.44;6095253;23;20022;-71
2023/04/13 06:01:31;;;;;;;16.25;4.60;;;;;;;8.65;100.00;99641.78;6093234;23;20784;-75
2023/04/13 06:03:58;;;;;;;10.35;4.63;;;;;;;8.78;100.00;99646.03;6092035;23;20017;-73
2023/04/13 06:06:24;;;;;;;10.52;4.82;;;;;;;8.72;100.00;99654.47;6087254;23;20097;-74
2023/04/13 06:08:51;;;;;;;15.95;5.00;;;;;;;9.15;100.00;99659.22;6088653;23;20018;-72
2023/04/13 06:11:17;;;;;;;8.70;4.50;;;;;;;9.03;100.00;99662.81;6088403;23;20010;-72
2023/04/13 06:13:43;;;;;;;9.00;4.63;;;;;;;8.76;100.00;99671.06;6087553;23;20748;-76
2023/04/13 06:16:12;;;;;;;19.63;4.72;;;;;;;8.76;100.00;99669.25;6089976;23;20192;-73
2023/04/13 06:18:40;;;;;;;11.23;4.30;;;;;;;9.51;100.00;99679.47;6092608;23;20044;-74
2023/04/13 06:21:09;;;;;;;8.68;4.13;;;;;;;9.38;100.00;99678.72;6091935;23;20065;-77
2023/04/13 06:23:40;;;;;;;11.65;4.00;;;;;;;9.31;100.00;99681.03;6089837;23;20484;-75
2023/04/13 06:26:19;;;;;;;10.57;4.63;;;;;;;8.95;100.00;99689.13;6088203;23;20033;-75
2023/04/13 06:28:50;;;;;;;12.80;5.55;;;;;;;8.84;100.00;99697.94;6088785;23;20018;-74
2023/04/13 06:31:17;;;;;;;16.92;5.00;;;;;;;8.89;100.00;99700.25;6090823;23;20025;-74
2023/04/13 06:33:46;;;;;;;7.63;4.43;;;;;;;8.66;100.00;99702.78;6093272;23;20018;-74
2023/04/13 06:36:12;;;;;;;11.27;4.95;;;;;;;8.78;100.00;99707.19;6099219;23;20073;-74
2023/04/13 06:38:38;;;;;;;10.35;5.15;;;;;;;9.11;100.00;99702.13;6096559;23;20014;-73
2023/04/13 06:41:08;;;;;;;15.13;7.72;;;;;;;9.00;100.00;99711.75;6095961;23;20022;-74
2023/04/13 06:43:37;;;;;;;12.70;6.25;;;;;;;8.97;100.00;99701.34;6093667;23;20148;-73
2023/04/13 06:46:17;;;;;;;23.83;6.35;;;;;;;8.78;100.00;99717.81;6093150;23;20715;-73
2023/04/13 06:48:45;;;;;;;38.67;7.25;;;;;;;8.70;100.00;99716.69;6096032;23;20014;-71
2023/04/13 06:51:11;;;;;;;13.75;6.30;;;;;;;8.53;100.00;99726.75;6094881;23;20049;-73
2023/04/13 06:53:40;;;;;;;16.58;7.45;;;;;;;8.69;100.00;99738.94;6072134;23;20029;-72
2023/04/13 06:56:06;;;;;;;14.40;7.03;;;;;;;8.37;100.00;99743.91;6096227;23;20010;-73
2023/04/13 06:58:32;;;;;;;15.18;7.03;;;;;;;8.18;100.00;99760.25;6094263;23;20021;-71
2023/04/13 07:00:57;;;;;;;13.15;6.47;;;;;;;8.38;100.00;99759.72;6095201;23;20021;-72
2023/04/13 07:03:26;;;;;;;10.27;5.40;;;;;;;8.32;100.00;99757.47;6095442;23;20014;-73
2023/04/13 07:05:53;;;;;;;12.30;7.05;;;;;;;8.53;100.00;99757.78;6093223;23;20010;-73
2023/04/13 07:08:18;;;;;;;12.43;6.00;;;;;;;8.30;100.00;99770.03;6097016;23;20120;-72
2023/04/13 07:10:45;;;;;;;8.23;4.88;;;;;;;8.45;100.00;99770.78;6094937;23;20524;-77
2023/04/13 07:13:25;;;;;;;9.63;4.97;;;;;;;8.46;100.00;99778.63;6095401;23;20132;-73
2023/04/13 07:15:52;;;;;;;8.50;3.45;;;;;;;8.35;100.00;99780.34;6099373;23;20089;-74
2023/04/13 07:18:18;;;;;;;7.30;3.10;;;;;;;8.03;100.00;99784.31;6099196;23;20021;-76
2023/04/13 07:20:43;;;;;;;4.00;2.83;;;;;;;7.91;100.00;99785.13;6094215;23;20021;-73
2023/04/13 07:23:10;;;;;;;5.88;3.97;;;;;;;7.92;100.00;99793.94;6095287;23;20698;-73
2023/04/13 07:25:36;;;;;;;8.38;3.88;;;;;;;8.01;100.00;99794.16;6097801;23;20409;-73
2023/04/13 07:28:03;;;;;;;6.40;3.50;;;;;;;8.16;100.00;99808.19;6094019;23;20090;-73
2023/04/13 07:30:29;;;;;;;9.23;4.78;;;;;;;8.18;100.00;99808.94;6097845;23;20504;-74
2023/04/13 07:32:55;;;;;;;12.10;6.07;;;;;;;8.28;100.00;99817.06;6098120;23;20016;-74
2023/04/13 07:35:20;;;;;;;10.82;6.30;;;;;;;8.39;100.00;99819.03;6094086;23;20440;-75
2023/04/13 07:37:48;;;;;;;11.85;6.60;;;;;;;8.32;100.00;99816.75;6095720;23;20559;-75
2023/04/13 07:40:17;;;;;;;19.60;6.22;;;;;;;8.78;100.00;99824.13;6071530;23;20017;-75
2023/04/13 07:42:50;;;;;;;9.13;5.47;;;;;;;8.53;100.00;99827.72;6096453;23;20045;-74
2023/04/13 07:45:16;;;;;;;15.02;6.85;;;;;;;8.35;100.00;99825.47;6097194;23;20014;-73
2023/04/13 07:47:43;;;;;;;12.40;5.53;;;;;;;8.74;100.00;99840.44;6095165;23;20010;-74
2023/04/13 07:50:10;;;;;;;8.20;5.35;;;;;;;8.56;100.00;99838.13;6097305;23;20097;-74
2023/04/13 07:52:37;;;;;;;8.75;5.30;;;;;;;8.57;100.00;99847.78;6096744;23;20636;-73
2023/04/13 07:55:03;;;;;;;15.80;5.68;;;;;;;8.47;100.00;99851.19;6098140;23;20716;-73
2023/04/13 07:57:33;;;;;;;9.48;5.60;;;;;;;8.88;100.00;99847.41;6092952;23;20017;-75
2023/04/13 08:00:05;;;;;;;17.73;6.85;;;;;;;8.95;100.00;99853.97;6091252;23;20056;-75
2023/04/13 08:02:39;;;;;;;9.65;4.70;;;;;;;9.24;100.00;99854.53;6091718;23;20064;-74
2023/04/13 08:05:06;;;;;;;13.07;5.22;;;;;;;9.49;100.00;99849.06;6090082;23;20018;-74
2023/04/13 08:07:32;;;;;;;8.43;4.28;;;;;;;9.29;100.00;99852.38;6091950;23;20018;-74
2023/04/13 08:09:59;;;;;;;9.82;4.22;;;;;;;9.56;100.00;99852.97;6091723;23;20017;-74
2023/04/13 08:12:27;;;;;;;8.25;4.85;;;;;;;10.31;100.00;99857.03;6091604;23;20017;-74
2023/04/13 08:14:53;;;;;;;10.85;5.15;;;;;;;10.29;100.00;99858.97;6091989;23;20045;-73
2023/04/13 08:17:18;;;;;;;9.40;5.13;;;;;;;10.98;100.00;99857.00;6093803;23;20589;-74
2023/04/13 08:19:44;;;;;;;7.80;4.38;;;;;;;10.63;100.00;99863.34;6091107;23;20009;-73
2023/04/13 08:22:12;;;;;;;8.77;3.97;;;;;;;10.56;100.00;99867.47;6089587;23;20109;-74
2023/04/13 08:24:38;;;;;;;10.25;4.85;;;;;;;10.70;100.00;99877.06;6068337;23;20009;-74
2023/04/13 08:27:06;;;;;;;7.97;4.30;;;;;;;10.49;100.00;99874.28;6091829;23;20089;-73
2023/04/13 08:29:32;;;;;;;7.63;4.30;;;;;;;10.25;100.00;99885.03;6093805;23;20036;-72
2023/04/13 08:31:57;;;;;;;17.80;4.72;;;;;;;10.54;100.00;99884.53;6090544;23;20854;-74
2023/04/13 08:34:26;;;;;;;8.30;4.45;;;;;;;11.25;100.00;99885.94;6091481;23;20112;-74
2023/04/13 08:36:54;;;;;;;18.15;4.72;;;;;;;11.34;100.00;99879.00;6092726;23;20321;-75
2023/04/13 08:39:21;;;;;;;10.93;4.30;;;;;;;10.73;100.00;99883.94;6092957;23;20163;-73
2023/04/13 08:41:47;;;;;;;9.95;3.90;;;;;;;10.73;100.00;99886.63;6094097;23;20033;-73
2023/04/13 08:44:16;;;;;;;14.93;5.57;;;;;;;11.03;100.00;99877.97;6090166;23;20030;-74
2023/04/13 08:46:46;;;;;;;16.70;4.32;;;;;;;11.43;100.00;99872.91;6091065;23;20040;-72
2023/04/13 08:49:13;;;;;;;13.55;3.65;;;;;;;11.44;100.00;99882.59;6090920;23;20014;-73
2023/04/13 08:52:07;;;;;;;11.77;3.10;;;;;;;11.36;100.00;99891.25;6095239;23;20049;-73
2023/04/13 08:54:34;;;;;;;13.00;3.75;;;;;;;11.21;100.00;99903.19;6118602;23;20014;-73
2023/04/13 08:57:02;;;;;;;11.00;3.08;;;;;;;11.39;100.00;99908.81;6093810;23;20025;-73
2023/04/13 08:59:32;;;;;;;14.65;5.20;;;;;;;11.14;100.00;99916.19;6090392;23;20020;-73
2023/04/13 09:02:00;;;;;;;10.23;3.60;;;;;;;11.00;100.00;99920.94;6093438;23;20021;-73
2023/04/13 09:04:37;;;;;;;17.90;6.28;;;;;;;10.95;100.00;99918.63;6090048;23;20026;-73
2023/04/13 09:07:03;;;;;;;10.85;3.70;;;;;;;10.75;100.00;99932.69;6094172;23;20017;-72
2023/04/13 09:09:36;;;;;;;15.25;4.63;;;;;;;10.82;100.00;99944.56;6116313;23;20026;-73
2023/04/13 09:12:02;;;;;;;16.77;4.40;;;;;;;10.40;100.00;99938.94;6094759;23;20365;-74
2023/04/13 09:14:30;;;;;;;14.00;4.15;;;;;;;10.31;100.00;99939.66;6092274;23;20013;-74
2023/04/13 09:16:56;;;;;;;13.75;3.25;;;;;;;10.64;100.00;99960.16;6069105;23;20018;-75
2023/04/13 09:19:33;;;;;;;13.63;3.10;;;;;;;11.19;100.00;99965.63;6093950;23;20014;-73
2023/04/13 09:22:12;;;;;;;19.52;2.90;;;;;;;11.59;100.00;99960.59;6093632;23;20021;-73
2023/04/13 09:24:40;;;;;;;12.30;3.22;;;;;;;11.86;100.00;99949.50;6091764;23;20029;-73
2023/04/13 09:27:19;;;;;;;12.57;3.22;;;;;;;11.37;100.00;99981.03;6091282;23;20087;-74
2023/04/13 09:29:50;;;;;;;18.48;3.03;;;;;;;12.26;100.00;99981.75;6095121;23;20024;-74
2023/04/13 09:32:21;;;;;;;17.48;4.28;;;;;;;11.92;100.00;99989.06;6092854;23;20021;-73
2023/04/13 09:35:03;;;;;;;14.68;2.50;;;;;;;12.44;100.00;99979.34;6097293;23;20120;-74
2023/04/13 09:37:31;;;;;;;10.02;2.20;;;;;;;12.08;100.00;99986.81;6095861;23;20021;-73
2023/04/13 09:40:12;;;;;;;10.68;2.65;;;;;;;12.15;100.00;99987.16;6098137;23;20713;-73
2023/04/13 09:42:52;;;;;;;18.25;2.92;;;;;;;12.19;100.00;100000.13;6096260;23;20037;-73
2023/04/13 09:45:18;;;;;;;14.70;2.13;;;;;;;11.99;99.52;100005.44;6095914;23;20848;-72
2023/04/13 09:47:44;;;;;;;5.88;1.88;;;;;;;12.66;96.98;100000.63;6095112;23;20022;-72
2023/04/13 09:50:27;;;;;;;10.95;2.15;;;;;;;12.24;98.73;99998.88;6091632;23;20131;-73
2023/04/13 09:53:03;;;;;;;8.73;2.97;;;;;;;12.33;98.62;100006.97;6098742;23;20014;-73
2023/04/13 09:55:31;;;;;;;9.05;2.05;;;;;;;12.02;97.41;100003.34;6096852;23;20022;-72
2023/04/13 09:58:17;;;;;;;7.03;1.92;;;;;;;12.07;96.77;100019.00;6097333;23;20014;-73
2023/04/13 10:00:45;;;;;;;6.97;1.50;;;;;;;12.34;97.77;100008.66;6094468;23;20028;-73
2023/04/13 10:03:17;;;;;;;10.63;2.90;;;;;;;12.68;93.25;100021.88;6095203;23;20024;-73
2023/04/13 10:05:43;;;;;;;10.75;2.03;;;;;;;12.44;90.19;100033.66;6096124;23;20052;-73
2023/04/13 10:08:11;;;;;;;5.20;1.70;;;;;;;12.46;89.76;100030.03;6092175;23;20028;-72
2023/04/13 10:10:38;;;;;;;13.95;3.03;;;;;;;12.21;89.39;100024.06;6096196;23;20321;-71
2023/04/13 10:13:17;;;;;;;6.85;2.38;;;;;;;12.07;88.74;100017.19;6093346;23;20014;-72
2023/04/13 10:16:04;;;;;;;9.00;1.75;;;;;;;11.92;89.40;100032.66;6093490;23;20014;-73
2023/04/13 10:18:59;;;;;;;7.57;2.35;;;;;;;11.70;90.22;100035.34;6091459;23;20022;-72
2023/04/13 10:21:32;;;;;;;13.02;2.13;;;;;;;11.89;92.84;100037.38;6094459;23;20010;-72
2023/04/13 10:23:58;;;;;;;9.60;2.03;;;;;;;12.08;92.93;100039.41;6094801;23;20037;-74
2023/04/13 10:26:36;;;;;;;18.05;2.83;;;;;;;11.90;92.40;100047.97;6096727;23;20210;-74
2023/04/13 10:29:02;;;;;;;17.20;3.33;;;;;;;12.06;95.66;100052.06;6095765;23;20021;-73
2023/04/13 10:31:55;;;;;;;14.48;4.43;;;;;;;13.27;95.05;100060.56;6092479;23;20038;-73
2023/04/13 10:34:24;;;;;;;12.45;2.13;;;;;;;13.03;94.16;100066.16;6090226;23;20102;-73
2023/04/13 10:37:02;;;;;;;7.82;2.08;;;;;;;13.69;93.36;100063.94;6091585;23;20026;-73
2023/04/13 10:39:34;;;;;;;12.90;3.00;;;;;;;13.60;83.58;100065.59;6092313;23;20357;-72
2023/04/13 10:42:01;;;;;;;13.15;3.33;;;;;;;13.45;86.67;100073.19;6090826;23;20017;-71
2023/04/13 10:44:38;;;;;;;10.77;2.60;;;;;;;13.25;84.17;100057.16;6066953;23;20022;-73
2023/04/13 10:47:07;;;;;;;15.32;2.70;;;;;;;13.71;83.83;100062.00;6093197;23;20284;-73
2023/04/13 10:49:32;;;;;;;13.18;2.35;;;;;;;13.51;79.16;100069.13;6088764;23;20436;-71
2023/04/13 10:51:58;;;;;;;11.70;2.08;;;;;;;14.13;77.25;100073.38;6096360;23;20074;-71
2023/04/13 10:54:28;;;;;;;8.50;2.25;;;;;;;13.54;78.23;100074.19;6095128;23;20585;-73
2023/04/13 10:56:56;;;;;;;14.00;3.92;;;;;;;13.37;77.35;100085.56;6093598;23;20024;-72
2023/04/13 10:59:21;;;;;;;12.00;1.90;;;;;;;12.74;78.84;100079.34;6091103;23;20061;-73
2023/04/13 11:01:47;;;;;;;11.02;1.75;;;;;;;13.09;79.96;100079.84;6091215;23;20616;-74
2023/04/13 11:04:14;;;;;;;14.30;1.50;;;;;;;13.47;74.67;100086.44;6090739;23;20131;-73
2023/04/13 11:06:40;;;;;;;11.57;2.55;;;;;;;14.09;72.41;100090.72;6090550;23;20530;-74
2023/04/13 11:09:05;;;;;;;9.93;2.38;;;;;;;14.71;72.52;100096.75;6095199;23;20511;-73
2023/04/13 11:11:33;;;;;;;10.48;2.03;;;;;;;14.35;71.90;100088.34;6093558;23;20013;-74
2023/04/13 11:13:59;;;;;;;15.35;1.77;;;;;;;15.04;70.40;100095.41;6088390;23;20311;-74
2023/04/13 11:16:24;;;;;;;13.25;2.00;;;;;;;15.01;72.04;100099.25;6089082;23;20010;-74
2023/04/13 11:19:01;;;;;;;10.05;2.92;;;;;;;14.62;73.01;100094.91;6091188;23;20025;-72
2023/04/13 11:21:26;;;;;;;6.05;2.38;;;;;;;13.97;77.84;100094.50;6092727;23;20024;-72
2023/04/13 11:23:52;;;;;;;11.45;1.83;;;;;;;12.76;80.38;100142.47;6091326;23;20022;-71
2023/04/13 11:26:29;;;;;;;6.20;1.50;;;;;;;12.53;91.97;100144.38;6092743;23;20025;-72
2023/04/13 11:28:56;;;;;;;18.70;2.45;;;;;;;12.16;100.00;100139.38;6095050;23;20718;-73
2023/04/13 11:31:34;;;;;;;12.57;3.03;;;;;;;12.74;100.00;100149.75;6093872;23;20101;-73
2023/04/13 11:34:00;;;;;;;11.38;2.95;;;;;;;13.09;99.91;100145.94;6097616;23;20120;-72
2023/04/13 11:36:29;;;;;;;11.23;2.55;;;;;;;13.17;95.66;100136.28;6094283;23;20029;-72
2023/04/13 11:38:54;;;;;;;9.15;2.88;;;;;;;13.30;92.73;100138.75;6073538;23;20234;-73